createdAt,value
2023-04-17T00:03:53.072Z,15.30
2023-04-17T00:08:56.069Z,14.70
2023-04-17T00:13:58.490Z,14.50
2023-04-17T00:19:00.955Z,12.13
2023-04-17T00:24:03.400Z,12.03
2023-04-17T00:29:05.912Z,13.70
2023-04-17T00:34:08.360Z,14.63
2023-04-17T00:39:10.965Z,15.07
2023-04-17T00:44:13.490Z,22.00
2023-04-17T00:49:15.973Z,16.23
2023-04-17T00:54:19.507Z,18.23
2023-04-17T00:59:22.396Z,21.83
2023-04-17T01:04:24.943Z,15.67
2023-04-17T01:09:27.986Z,13.07
2023-04-17T01:14:30.271Z,15.83
2023-04-17T01:19:32.815Z,18.37
2023-04-17T01:24:35.273Z,13.00
2023-04-17T01:29:37.689Z,13.87
2023-04-17T01:34:40.340Z,19.07
2023-04-17T01:39:42.817Z,11.10
2023-04-17T01:44:45.303Z,15.30
2023-04-17T01:49:48.598Z,12.87
2023-04-17T01:54:51.001Z,15.97
2023-04-17T01:59:53.467Z,15.27
2023-04-17T02:04:55.929Z,13.80
2023-04-17T02:09:58.353Z,12.57
2023-04-17T02:15:01.575Z,12.47
2023-04-17T02:20:08.000Z,14.87
2023-04-17T02:25:10.390Z,15.53
2023-04-17T02:30:13.077Z,15.73
2023-04-17T02:35:15.732Z,12.73
2023-04-17T02:40:18.337Z,15.70
2023-04-17T02:45:20.909Z,22.27
2023-04-17T02:50:23.408Z,20.80
2023-04-17T02:55:48.655Z,14.50
2023-04-17T03:01:00.806Z,32.17
2023-04-17T03:06:04.762Z,29.67
2023-04-17T03:11:07.671Z,46.03
2023-04-17T03:16:10.322Z,19.00
2023-04-17T03:21:14.110Z,24.53
2023-04-17T03:26:16.460Z,16.33
2023-04-17T03:31:19.020Z,20.73
2023-04-17T03:36:21.667Z,19.30
2023-04-17T03:41:24.390Z,19.77
2023-04-17T03:46:27.050Z,18.83
2023-04-17T03:51:29.805Z,28.10
2023-04-17T03:56:37.388Z,26.23
2023-04-17T04:01:41.408Z,23.27
2023-04-17T04:06:54.793Z,20.40
2023-04-17T04:11:57.892Z,28.37
2023-04-17T04:17:00.982Z,26.23
2023-04-17T04:22:06.715Z,14.17
2023-04-17T04:27:24.592Z,15.83
2023-04-17T04:32:28.800Z,20.80
2023-04-17T04:37:32.875Z,17.00
2023-04-17T04:42:42.608Z,19.77
2023-04-17T04:47:51.067Z,18.63
2023-04-17T04:52:54.506Z,17.23
2023-04-17T04:58:10.436Z,15.63
2023-04-17T05:03:14.681Z,13.70
2023-04-17T05:08:17.463Z,21.10
2023-04-17T05:13:30.680Z,17.37
2023-04-17T05:18:33.746Z,16.27
2023-04-17T05:23:37.155Z,17.53
2023-04-17T05:28:41.315Z,16.17
2023-04-17T05:33:43.975Z,20.77
2023-04-17T05:38:48.584Z,15.40
2023-04-17T05:43:51.495Z,17.30
2023-04-17T05:48:56.082Z,17.13
2023-04-17T05:53:59.159Z,16.47
2023-04-17T05:59:01.922Z,15.63
2023-04-17T06:04:04.863Z,11.23
2023-04-17T06:09:09.644Z,15.30
2023-04-17T06:14:13.034Z,15.97
2023-04-17T06:19:16.483Z,11.17
2023-04-17T06:24:20.482Z,13.03
2023-04-17T06:29:24.035Z,11.97
2023-04-17T06:34:27.106Z,14.13
2023-04-17T06:39:32.076Z,17.70
2023-04-17T06:44:36.300Z,12.07
2023-04-17T06:49:38.647Z,12.90
2023-04-17T06:54:41.090Z,15.47
2023-04-17T06:59:43.422Z,19.67
2023-04-17T07:04:45.953Z,16.07
2023-04-17T07:09:48.597Z,16.97
2023-04-17T07:14:51.525Z,17.97
2023-04-17T07:19:53.914Z,16.87
2023-04-17T07:24:56.211Z,16.90
2023-04-17T07:30:01.642Z,19.37
2023-04-17T07:35:05.623Z,14.17
2023-04-17T07:40:10.051Z,18.53
2023-04-17T07:45:12.306Z,13.20
2023-04-17T07:50:14.700Z,23.23
2023-04-17T07:55:17.324Z,29.90
2023-04-17T08:00:19.927Z,18.73
2023-04-17T08:05:24.037Z,18.00
2023-04-17T08:10:30.078Z,22.37
2023-04-17T08:15:32.482Z,25.57
2023-04-17T08:20:34.783Z,14.57
2023-04-17T08:25:38.206Z,18.83
2023-04-17T08:30:40.511Z,30.97
2023-04-17T08:35:42.922Z,15.37
2023-04-17T08:40:49.508Z,15.07
2023-04-17T08:45:55.847Z,13.70
2023-04-17T08:50:58.588Z,10.73
2023-04-17T08:56:07.529Z,7.77
2023-04-17T09:01:18.020Z,9.53
2023-04-17T09:06:20.392Z,9.13
2023-04-17T09:11:22.781Z,9.33
2023-04-17T09:16:26.038Z,7.73
2023-04-17T09:21:29.450Z,8.83
2023-04-17T09:26:33.608Z,10.20
2023-04-17T09:31:37.886Z,13.00
2023-04-17T09:36:42.402Z,8.53
2023-04-17T09:41:45.213Z,11.87
2023-04-17T09:46:48.022Z,9.30
2023-04-17T09:51:51.116Z,11.23
2023-04-17T09:56:56.356Z,8.37
2023-04-17T10:01:58.923Z,5.57
2023-04-17T10:07:03.359Z,6.43
2023-04-17T10:12:06.292Z,8.70
2023-04-17T10:17:31.981Z,5.70
2023-04-17T10:22:35.125Z,7.40
2023-04-17T10:27:37.745Z,4.60
2023-04-17T10:32:45.986Z,5.57
2023-04-17T10:37:51.087Z,5.40
2023-04-17T10:43:20.188Z,4.40
2023-04-17T10:48:24.584Z,5.07
2023-04-17T10:53:45.386Z,6.20
2023-04-17T10:58:59.365Z,6.37
2023-04-17T11:04:01.799Z,6.60
2023-04-17T11:09:08.431Z,7.20
2023-04-17T11:14:18.576Z,5.63
2023-04-17T11:19:23.384Z,6.37
2023-04-17T11:24:30.855Z,8.77
2023-04-17T11:29:33.430Z,7.50
2023-04-17T11:34:37.516Z,8.23
2023-04-17T11:39:42.774Z,7.33
2023-04-17T11:44:45.207Z,6.80
2023-04-17T11:49:47.569Z,9.17
2023-04-17T11:54:58.020Z,8.63
2023-04-17T12:00:00.297Z,8.80
2023-04-17T12:05:18.662Z,9.07
2023-04-17T12:10:24.238Z,8.97
2023-04-17T12:15:28.413Z,8.97
2023-04-17T12:20:30.817Z,8.53
2023-04-17T12:25:34.182Z,8.67
2023-04-17T12:30:40.049Z,12.00
2023-04-17T12:35:42.394Z,13.50
2023-04-17T12:40:45.930Z,10.97
2023-04-17T12:45:48.672Z,9.83
2023-04-17T12:50:51.201Z,10.97
2023-04-17T12:55:53.584Z,8.23
2023-04-17T13:00:56.069Z,9.87
2023-04-17T13:05:58.504Z,8.93
2023-04-17T13:11:03.984Z,7.03
2023-04-17T13:16:06.759Z,10.40
2023-04-17T13:21:10.324Z,7.93
2023-04-17T13:26:12.722Z,11.50
2023-04-17T13:31:15.107Z,6.67
2023-04-17T13:36:17.500Z,11.43
2023-04-17T13:41:19.931Z,8.33
2023-04-17T13:46:22.553Z,9.40
2023-04-17T13:51:24.916Z,10.27
2023-04-17T13:56:27.713Z,6.17
2023-04-17T14:01:30.172Z,9.80
2023-04-17T14:06:34.079Z,7.23
2023-04-17T14:11:36.464Z,9.33
2023-04-17T14:16:40.277Z,5.90
2023-04-17T14:21:43.215Z,12.13
2023-04-17T14:26:45.680Z,8.07
2023-04-17T14:31:48.224Z,7.80
2023-04-17T14:36:50.832Z,9.33
2023-04-17T14:41:53.327Z,8.03
2023-04-17T14:46:57.146Z,9.73
2023-04-17T14:51:59.621Z,6.73
2023-04-17T14:57:02.084Z,9.20
2023-04-17T15:02:07.566Z,6.77
2023-04-17T15:07:10.095Z,9.17
2023-04-17T15:12:12.521Z,7.90
2023-04-17T15:17:15.106Z,6.40
2023-04-17T15:22:17.658Z,7.70
2023-04-17T15:27:20.458Z,9.30
2023-04-17T15:32:23.057Z,12.10
2023-04-17T15:37:25.564Z,10.03
2023-04-17T15:42:28.235Z,12.10
2023-04-17T15:47:33.002Z,11.93
2023-04-17T15:52:35.449Z,12.07
2023-04-17T15:57:39.316Z,13.90
2023-04-17T16:02:42.673Z,11.50
2023-04-17T16:07:46.053Z,11.30
2023-04-17T16:12:48.440Z,8.90
2023-04-17T16:17:51.092Z,10.93
2023-04-17T16:22:53.631Z,13.73
2023-04-17T16:27:56.210Z,18.53
2023-04-17T16:32:58.819Z,15.97
2023-04-17T16:38:02.074Z,20.03
2023-04-17T16:43:04.497Z,17.87
2023-04-17T16:48:09.345Z,16.47
2023-04-17T16:53:11.970Z,18.77
2023-04-17T16:58:14.474Z,15.97
2023-04-17T17:03:18.199Z,16.37
2023-04-17T17:08:20.601Z,14.67
2023-04-17T17:13:23.669Z,16.67
2023-04-17T17:18:26.451Z,18.20
2023-04-17T17:23:28.858Z,15.47
2023-04-17T17:28:31.395Z,10.77
2023-04-17T17:33:34.685Z,8.87
2023-04-17T17:38:37.181Z,19.80
2023-04-17T17:43:39.539Z,11.43
2023-04-17T17:48:42.108Z,9.30
2023-04-17T17:53:44.430Z,9.50
2023-04-17T17:58:46.899Z,8.50
2023-04-17T18:03:49.923Z,14.00
2023-04-17T18:08:53.304Z,18.60
2023-04-17T18:13:55.680Z,28.87
2023-04-17T18:19:00.158Z,16.77
2023-04-17T18:24:02.524Z,16.50
2023-04-17T18:29:05.136Z,13.50
2023-04-17T18:34:07.808Z,19.00
2023-04-17T18:39:10.399Z,18.87
2023-04-17T18:44:15.108Z,16.00
2023-04-17T18:49:17.620Z,10.57
2023-04-17T18:54:22.306Z,16.07
2023-04-17T18:59:26.547Z,17.73
2023-04-17T19:04:30.832Z,12.57
2023-04-17T19:09:33.249Z,15.53
2023-04-17T19:14:35.652Z,24.03
2023-04-17T19:19:38.391Z,42.90
2023-04-17T19:24:53.175Z,29.20
2023-04-17T19:29:57.185Z,26.33
2023-04-17T19:35:00.047Z,27.37
2023-04-17T19:40:14.255Z,23.17
2023-04-17T19:45:21.830Z,14.05
2023-04-17T19:50:27.926Z,17.63
2023-04-17T19:55:30.293Z,17.40
2023-04-17T20:00:32.967Z,10.10
2023-04-17T20:05:36.086Z,16.00
2023-04-17T20:10:38.666Z,11.63
2023-04-17T20:15:41.775Z,12.90
2023-04-17T20:20:44.223Z,16.10
2023-04-17T20:25:46.936Z,18.43
2023-04-17T20:30:49.834Z,29.30
2023-04-17T20:35:52.093Z,21.30
2023-04-17T20:40:54.435Z,25.30
2023-04-17T20:45:56.805Z,13.53
2023-04-17T20:51:02.371Z,14.37
2023-04-17T20:56:04.997Z,17.20
2023-04-17T21:01:07.368Z,19.33
2023-04-17T21:06:09.961Z,28.87
2023-04-17T21:11:12.303Z,17.63
2023-04-17T21:16:14.858Z,18.13
2023-04-17T21:21:17.266Z,25.10
2023-04-17T21:26:19.843Z,22.80
2023-04-17T21:31:22.185Z,21.77
2023-04-17T21:36:25.261Z,21.17
2023-04-17T21:41:27.580Z,20.10
2023-04-17T21:46:29.998Z,20.00
2023-04-17T21:51:32.384Z,21.43
2023-04-17T21:56:34.760Z,20.83
2023-04-17T22:01:37.313Z,19.03
2023-04-17T22:06:39.873Z,19.70
2023-04-17T22:11:42.142Z,14.47
2023-04-17T22:16:44.626Z,16.73
2023-04-17T22:21:46.945Z,13.63
2023-04-17T22:26:49.324Z,20.63
2023-04-17T22:31:51.717Z,17.10
2023-04-17T22:36:54.211Z,19.03
2023-04-17T22:41:57.623Z,15.47
2023-04-17T22:47:00.955Z,13.20
2023-04-17T22:52:03.390Z,19.37
2023-04-17T22:57:05.881Z,16.17
2023-04-17T23:02:08.473Z,18.13
2023-04-17T23:07:11.022Z,13.97
2023-04-17T23:12:13.393Z,16.33
2023-04-17T23:17:15.707Z,19.30
2023-04-17T23:22:18.051Z,20.97
2023-04-17T23:27:20.651Z,15.33
2023-04-17T23:32:25.735Z,16.83
2023-04-17T23:37:28.197Z,16.80
2023-04-17T23:42:31.204Z,18.03
2023-04-17T23:47:33.759Z,19.57
2023-04-17T23:52:36.186Z,20.60
2023-04-17T23:57:38.840Z,18.60
